createdAt,value
2022-10-05T00:01:31.063Z,8.38
2022-10-05T00:04:11.744Z,8.41
2022-10-05T00:06:40.244Z,8.42
2022-10-05T00:09:15.224Z,8.42
2022-10-05T00:11:44.835Z,8.44
2022-10-05T00:14:18.343Z,8.46
2022-10-05T00:16:48.043Z,8.47
2022-10-05T00:19:21.409Z,8.48
2022-10-05T00:21:50.332Z,8.49
2022-10-05T00:24:20.414Z,8.48
2022-10-05T00:26:52.838Z,8.48
2022-10-05T00:29:26.184Z,8.47
2022-10-05T00:31:56.394Z,8.48
2022-10-05T00:34:27.210Z,8.46
2022-10-05T00:36:58.663Z,8.45
2022-10-05T00:39:29.580Z,8.44
2022-10-05T00:42:21.736Z,8.41
2022-10-05T00:44:57.554Z,8.39
2022-10-05T00:47:37.105Z,8.37
2022-10-05T00:50:31.723Z,8.34
2022-10-05T00:53:11.519Z,8.35
2022-10-05T00:55:55.358Z,8.35
2022-10-05T00:58:38.154Z,8.35
2022-10-05T01:01:11.259Z,8.37
2022-10-05T01:03:54.239Z,8.39
2022-10-05T01:06:31.424Z,8.41
2022-10-05T01:09:09.344Z,8.42
2022-10-05T01:11:46.224Z,8.44
2022-10-05T01:14:21.199Z,8.45
2022-10-05T01:16:55.936Z,8.47
2022-10-05T01:19:50.846Z,8.47
2022-10-05T01:22:36.297Z,8.49
2022-10-05T01:25:21.077Z,8.50
2022-10-05T01:27:59.133Z,8.50
2022-10-05T01:30:36.819Z,8.53
2022-10-05T01:33:16.607Z,8.53
2022-10-05T01:35:57.691Z,8.55
2022-10-05T01:38:35.911Z,8.55
2022-10-05T01:41:20.104Z,8.56
2022-10-05T01:43:54.576Z,8.55
2022-10-05T01:46:31.145Z,8.55
2022-10-05T01:49:15.679Z,8.55
2022-10-05T01:51:48.473Z,8.54
2022-10-05T01:54:30.797Z,8.53
2022-10-05T01:57:10.333Z,8.54
2022-10-05T01:59:56.123Z,8.55
2022-10-05T02:02:29.009Z,8.56
2022-10-05T02:05:03.803Z,8.56
2022-10-05T02:07:37.545Z,8.55
2022-10-05T02:10:14.502Z,8.54
2022-10-05T02:12:45.521Z,8.51
2022-10-05T02:15:19.730Z,8.49
2022-10-05T02:17:51.042Z,8.46
2022-10-05T02:20:25.671Z,8.44
2022-10-05T02:22:57.711Z,8.42
2022-10-05T02:25:30.826Z,8.42
2022-10-05T02:28:05.986Z,8.39
2022-10-05T02:30:41.348Z,8.36
2022-10-05T02:33:18.797Z,8.33
2022-10-05T02:35:47.303Z,8.31
2022-10-05T02:38:28.213Z,8.29
2022-10-05T02:41:06.396Z,8.26
2022-10-05T02:43:46.140Z,8.25
2022-10-05T02:46:25.626Z,8.23
2022-10-05T02:49:11.104Z,8.20
2022-10-05T02:51:48.819Z,8.17
2022-10-05T02:54:28.575Z,8.16
2022-10-05T02:57:04.223Z,8.14
2022-10-05T02:59:38.572Z,8.14
2022-10-05T03:02:15.397Z,8.12
2022-10-05T03:04:52.032Z,8.11
2022-10-05T03:07:27.641Z,8.10
2022-10-05T03:10:05.248Z,8.09
2022-10-05T03:12:49.051Z,8.08
2022-10-05T03:15:35.459Z,8.07
2022-10-05T03:18:16.057Z,8.06
2022-10-05T03:20:54.603Z,8.07
2022-10-05T03:23:35.572Z,8.07
2022-10-05T03:26:19.083Z,8.09
2022-10-05T03:28:55.963Z,8.07
2022-10-05T03:31:35.147Z,8.08
2022-10-05T03:34:11.233Z,8.07
2022-10-05T03:36:49.268Z,8.04
2022-10-05T03:39:27.292Z,8.04
2022-10-05T03:42:07.692Z,8.04
2022-10-05T03:44:46.083Z,8.06
2022-10-05T03:47:24.971Z,8.07
2022-10-05T03:50:21.453Z,8.05
2022-10-05T03:52:56.132Z,8.04
2022-10-05T03:55:31.252Z,8.06
2022-10-05T03:58:07.454Z,8.06
2022-10-05T04:00:40.133Z,8.05
2022-10-05T04:03:15.834Z,8.06
2022-10-05T04:05:50.583Z,8.04
2022-10-05T04:08:25.889Z,8.05
2022-10-05T04:11:04.826Z,8.04
2022-10-05T04:13:39.970Z,8.01
2022-10-05T04:16:19.769Z,8.00
2022-10-05T04:18:56.817Z,7.99
2022-10-05T04:21:30.246Z,7.99
2022-10-05T04:24:04.469Z,7.99
2022-10-05T04:26:41.273Z,7.99
2022-10-05T04:29:19.259Z,7.99
2022-10-05T04:32:05.190Z,8.00
2022-10-05T04:35:02.556Z,7.99
2022-10-05T04:37:46.450Z,7.99
2022-10-05T04:40:34.006Z,7.99
2022-10-05T04:43:13.756Z,7.99
2022-10-05T04:45:58.136Z,7.98
2022-10-05T04:48:38.262Z,7.98
2022-10-05T04:51:20.634Z,7.96
2022-10-05T04:53:59.263Z,7.96
2022-10-05T04:56:35.251Z,7.95
2022-10-05T04:59:35.332Z,7.95
2022-10-05T05:02:13.532Z,7.95
2022-10-05T05:04:56.292Z,7.96
2022-10-05T05:07:37.873Z,7.97
2022-10-05T05:10:40.771Z,7.99
2022-10-05T05:13:23.685Z,8.02
2022-10-05T05:15:58.738Z,8.04
2022-10-05T05:18:46.194Z,8.08
2022-10-05T05:21:30.573Z,8.11
2022-10-05T05:24:09.728Z,8.15
2022-10-05T05:26:55.552Z,8.19
2022-10-05T05:29:38.517Z,8.21
2022-10-05T05:32:14.054Z,8.25
2022-10-05T05:35:00.193Z,8.29
2022-10-05T05:37:35.452Z,8.33
2022-10-05T05:40:19.963Z,8.37
2022-10-05T05:42:58.103Z,8.41
2022-10-05T05:45:40.436Z,8.44
2022-10-05T05:48:18.077Z,8.46
2022-10-05T05:50:56.165Z,8.49
2022-10-05T05:53:31.951Z,8.55
2022-10-05T05:56:09.446Z,8.59
2022-10-05T05:58:47.413Z,8.65
2022-10-05T06:01:33.359Z,8.74
2022-10-05T06:04:14.600Z,8.82
2022-10-05T06:06:48.794Z,8.90
2022-10-05T06:09:26.021Z,8.98
2022-10-05T06:12:15.807Z,9.06
2022-10-05T06:14:50.434Z,9.15
2022-10-05T06:17:24.806Z,9.23
2022-10-05T06:20:02.436Z,9.32
2022-10-05T06:22:41.687Z,9.40
2022-10-05T06:25:24.368Z,9.46
2022-10-05T06:28:09.832Z,9.54
2022-10-05T06:30:51.799Z,9.62
2022-10-05T06:33:37.743Z,9.71
2022-10-05T06:36:17.612Z,9.81
2022-10-05T06:39:16.950Z,9.89
2022-10-05T06:42:01.378Z,9.99
2022-10-05T06:45:00.023Z,10.05
2022-10-05T06:47:56.116Z,10.13
2022-10-05T06:50:42.609Z,10.20
2022-10-05T06:53:40.653Z,10.31
2022-10-05T06:56:17.358Z,10.38
2022-10-05T06:59:01.763Z,10.44
2022-10-05T07:01:41.240Z,10.53
2022-10-05T07:04:46.047Z,10.59
2022-10-05T07:07:23.339Z,10.63
2022-10-05T07:10:06.057Z,10.72
2022-10-05T07:12:49.756Z,10.77
2022-10-05T07:15:31.326Z,10.83
2022-10-05T07:18:14.398Z,10.86
2022-10-05T07:20:53.231Z,10.92
2022-10-05T07:23:41.748Z,11.01
2022-10-05T07:26:18.856Z,11.10
2022-10-05T07:28:54.424Z,11.23
2022-10-05T07:31:34.962Z,11.39
2022-10-05T07:34:09.291Z,11.66
2022-10-05T07:37:04.090Z,11.94
2022-10-05T07:39:58.514Z,12.13
2022-10-05T07:42:44.582Z,12.27
2022-10-05T07:45:25.301Z,12.42
2022-10-05T07:47:57.213Z,12.52
2022-10-05T07:50:34.298Z,12.60
2022-10-05T07:53:11.719Z,12.69
2022-10-05T07:55:47.338Z,12.77
2022-10-05T07:58:23.493Z,12.86
2022-10-05T08:01:04.207Z,12.93
2022-10-05T08:03:47.289Z,13.07
2022-10-05T08:06:32.259Z,13.19
2022-10-05T08:09:12.447Z,13.38
2022-10-05T08:11:51.955Z,13.59
2022-10-05T08:14:28.538Z,13.78
2022-10-05T08:17:00.727Z,14.00
2022-10-05T08:19:40.375Z,14.23
2022-10-05T08:22:18.028Z,14.39
2022-10-05T08:24:57.002Z,14.51
2022-10-05T08:27:28.750Z,14.59
2022-10-05T08:30:04.342Z,14.63
2022-10-05T08:32:38.721Z,14.66
2022-10-05T08:35:15.326Z,14.67
2022-10-05T08:37:46.106Z,14.70
2022-10-05T08:40:46.064Z,14.77
2022-10-05T08:43:37.164Z,14.87
2022-10-05T08:46:38.095Z,14.96
2022-10-05T08:49:57.635Z,15.06
2022-10-05T08:52:29.172Z,15.14
2022-10-05T08:55:29.883Z,15.25
2022-10-05T08:58:33.996Z,15.29
2022-10-05T09:01:11.579Z,15.39
2022-10-05T09:04:21.807Z,15.52
2022-10-05T09:07:27.512Z,15.86
2022-10-05T09:10:32.858Z,16.36
2022-10-05T09:13:26.198Z,16.59
2022-10-05T09:16:24.769Z,16.60
2022-10-05T09:19:15.491Z,16.61
2022-10-05T09:21:51.332Z,16.59
2022-10-05T09:24:39.523Z,16.52
2022-10-05T09:27:13.988Z,16.51
2022-10-05T09:30:19.235Z,16.58
2022-10-05T09:33:13.541Z,16.56
2022-10-05T09:35:58.097Z,16.47
2022-10-05T09:38:38.001Z,16.44
2022-10-05T09:41:40.114Z,16.42
2022-10-05T09:44:47.509Z,16.46
2022-10-05T09:47:51.209Z,16.43
2022-10-05T09:50:55.156Z,16.52
2022-10-05T09:53:44.301Z,16.70
2022-10-05T09:59:36.412Z,16.77
2022-10-05T10:02:17.935Z,16.86
2022-10-05T10:05:06.617Z,17.01
2022-10-05T10:07:53.971Z,17.09
2022-10-05T10:10:48.531Z,17.14
2022-10-05T10:13:42.264Z,17.16
2022-10-05T10:16:18.619Z,17.14
2022-10-05T10:19:06.845Z,17.18
2022-10-05T10:22:00.522Z,17.37
2022-10-05T10:25:01.500Z,17.76
2022-10-05T10:27:57.292Z,18.14
2022-10-05T10:30:52.760Z,18.46
2022-10-05T10:33:46.346Z,18.72
2022-10-05T10:36:21.545Z,18.94
2022-10-05T10:39:00.328Z,18.94
2022-10-05T10:41:59.362Z,18.80
2022-10-05T10:45:01.519Z,18.73
2022-10-05T10:47:40.440Z,18.92
2022-10-05T10:51:05.114Z,19.12
2022-10-05T10:54:11.726Z,19.19
2022-10-05T10:57:03.490Z,19.26
2022-10-05T11:00:02.966Z,19.28
2022-10-05T11:02:54.693Z,19.23
2022-10-05T11:05:46.434Z,19.28
2022-10-05T11:08:56.755Z,19.23
2022-10-05T11:12:10.020Z,19.05
2022-10-05T11:14:54.142Z,18.91
2022-10-05T11:17:56.244Z,18.89
2022-10-05T11:21:08.983Z,18.97
2022-10-05T11:24:15.366Z,19.04
2022-10-05T11:27:02.684Z,19.07
2022-10-05T11:30:03.191Z,19.17
2022-10-05T11:32:58.267Z,19.18
2022-10-05T11:36:10.606Z,19.25
2022-10-05T11:39:01.653Z,19.21
2022-10-05T11:41:53.463Z,19.05
2022-10-05T11:44:48.020Z,18.95
2022-10-05T11:47:23.776Z,18.80
2022-10-05T11:50:06.013Z,18.71
2022-10-05T11:52:44.401Z,18.59
2022-10-05T11:55:27.681Z,18.55
2022-10-05T11:58:01.389Z,18.45
2022-10-05T12:00:39.952Z,18.39
2022-10-05T12:03:25.485Z,18.32
2022-10-05T12:06:08.695Z,18.25
2022-10-05T12:08:47.890Z,18.20
2022-10-05T12:11:33.781Z,18.17
2022-10-05T12:14:08.946Z,18.12
2022-10-05T12:16:47.237Z,18.10
2022-10-05T12:19:29.805Z,18.06
2022-10-05T12:22:03.698Z,18.05
2022-10-05T12:24:54.571Z,18.05
2022-10-05T12:27:27.421Z,18.00
2022-10-05T12:30:06.204Z,17.96
2022-10-05T12:32:41.309Z,17.90
2022-10-05T12:35:30.017Z,17.91
2022-10-05T12:38:16.729Z,17.89
2022-10-05T12:40:51.066Z,17.90
2022-10-05T12:43:31.270Z,17.93
2022-10-05T12:46:09.351Z,17.94
2022-10-05T12:49:22.128Z,17.91
2022-10-05T12:51:56.350Z,17.89
2022-10-05T12:54:38.748Z,17.95
2022-10-05T12:57:19.874Z,18.02
2022-10-05T13:00:02.078Z,18.02
2022-10-05T13:02:40.794Z,18.05
2022-10-05T13:05:23.068Z,18.06
2022-10-05T13:08:17.836Z,18.05
2022-10-05T13:10:52.681Z,18.06
2022-10-05T13:13:35.758Z,18.08
2022-10-05T13:16:17.119Z,18.01
2022-10-05T13:19:02.134Z,17.95
2022-10-05T13:21:40.840Z,17.94
2022-10-05T13:24:21.903Z,17.93
2022-10-05T13:26:58.227Z,17.96
2022-10-05T13:29:33.033Z,17.95
2022-10-05T13:32:12.406Z,17.94
2022-10-05T13:34:48.615Z,17.91
2022-10-05T13:37:29.071Z,17.86
2022-10-05T13:40:15.675Z,17.83
2022-10-05T13:42:52.041Z,17.82
2022-10-05T13:45:24.620Z,17.81
2022-10-05T13:48:16.246Z,17.79
2022-10-05T13:50:50.561Z,17.77
2022-10-05T13:53:28.225Z,17.71
2022-10-05T13:56:00.969Z,17.60
2022-10-05T13:58:39.251Z,17.56
2022-10-05T14:01:15.731Z,17.51
2022-10-05T14:04:05.586Z,17.46
2022-10-05T14:06:37.119Z,17.38
2022-10-05T14:09:13.532Z,17.34
2022-10-05T14:12:05.762Z,17.24
2022-10-05T14:14:45.099Z,17.16
2022-10-05T14:17:17.565Z,17.09
2022-10-05T14:19:54.077Z,17.04
2022-10-05T14:22:24.472Z,17.00
2022-10-05T14:25:02.979Z,16.99
2022-10-05T14:27:35.983Z,16.96
2022-10-05T14:30:22.995Z,16.92
2022-10-05T14:32:55.866Z,16.89
2022-10-05T14:35:28.409Z,16.86
2022-10-05T14:38:00.952Z,16.82
2022-10-05T14:40:32.448Z,16.77
2022-10-05T14:43:19.908Z,16.71
2022-10-05T14:46:00.583Z,16.61
2022-10-05T14:48:43.611Z,16.54
2022-10-05T14:51:24.367Z,16.47
2022-10-05T14:54:02.519Z,16.42
2022-10-05T14:56:49.617Z,16.35
2022-10-05T14:59:39.530Z,16.31
2022-10-05T15:02:28.355Z,16.27
2022-10-05T15:05:07.400Z,16.23
2022-10-05T15:07:40.887Z,16.19
2022-10-05T15:10:29.442Z,16.13
2022-10-05T15:13:10.701Z,16.04
2022-10-05T15:15:49.426Z,15.98
2022-10-05T15:18:39.721Z,15.93
2022-10-05T15:21:31.447Z,15.84
2022-10-05T15:24:05.377Z,15.79
2022-10-05T15:26:42.644Z,15.72
2022-10-05T15:29:25.491Z,15.65
2022-10-05T15:32:02.651Z,15.59
2022-10-05T15:34:37.310Z,15.54
2022-10-05T15:37:16.487Z,15.50
2022-10-05T15:39:52.744Z,15.47
2022-10-05T15:42:29.851Z,15.40
2022-10-05T15:45:06.542Z,15.34
2022-10-05T15:47:46.493Z,15.28
2022-10-05T15:50:22.884Z,15.21
2022-10-05T15:52:56.488Z,15.17
2022-10-05T15:55:35.943Z,15.13
2022-10-05T15:58:38.361Z,15.08
2022-10-05T16:01:12.124Z,15.04
2022-10-05T16:03:45.773Z,14.98
2022-10-05T16:06:49.281Z,14.91
2022-10-05T16:09:35.622Z,14.87
2022-10-05T16:12:25.867Z,14.82
2022-10-05T16:15:15.760Z,14.77
2022-10-05T16:18:02.162Z,14.73
2022-10-05T16:20:41.340Z,14.70
2022-10-05T16:23:17.146Z,14.65
2022-10-05T16:26:00.830Z,14.61
2022-10-05T16:28:39.292Z,14.58
2022-10-05T16:31:18.119Z,14.53
2022-10-05T16:34:00.603Z,14.49
2022-10-05T16:36:43.975Z,14.47
2022-10-05T16:39:22.095Z,14.45
2022-10-05T16:41:59.947Z,14.44
2022-10-05T16:44:41.772Z,14.43
2022-10-05T16:47:36.295Z,14.41
2022-10-05T16:50:38.814Z,14.38
2022-10-05T16:53:17.655Z,14.35
2022-10-05T16:55:49.591Z,14.34
2022-10-05T16:58:25.274Z,14.32
2022-10-05T17:01:10.858Z,14.31
2022-10-05T17:03:53.394Z,14.28
2022-10-05T17:06:53.524Z,14.26
2022-10-05T17:09:49.256Z,14.22
2022-10-05T17:12:31.858Z,14.21
2022-10-05T17:15:14.067Z,14.18
2022-10-05T17:18:01.805Z,14.17
2022-10-05T17:20:44.042Z,14.16
2022-10-05T17:23:29.778Z,14.15
2022-10-05T17:26:10.305Z,14.14
2022-10-05T17:28:41.646Z,14.12
2022-10-05T17:31:16.994Z,14.11
2022-10-05T17:34:26.663Z,14.09
2022-10-05T17:37:15.886Z,14.05
2022-10-05T17:39:50.872Z,14.02
2022-10-05T17:42:48.671Z,14.00
2022-10-05T17:46:05.295Z,13.97
2022-10-05T17:48:53.689Z,13.92
2022-10-05T17:52:19.239Z,13.88
2022-10-05T17:55:27.822Z,13.83
2022-10-05T17:57:59.251Z,13.78
2022-10-05T18:00:40.157Z,13.75
2022-10-05T18:03:35.710Z,13.73
2022-10-05T18:06:36.847Z,13.68
2022-10-05T18:09:49.462Z,13.64
2022-10-05T18:12:44.899Z,13.59
2022-10-05T18:15:48.853Z,13.61
2022-10-05T18:18:57.076Z,13.57
2022-10-05T18:21:37.261Z,13.54
2022-10-05T18:24:44.727Z,13.53
2022-10-05T18:27:31.610Z,13.53
2022-10-05T18:30:15.004Z,13.51
2022-10-05T18:33:33.294Z,13.50
2022-10-05T18:36:11.984Z,13.49
2022-10-05T18:38:52.815Z,13.48
2022-10-05T18:41:34.313Z,13.47
2022-10-05T18:44:19.082Z,13.46
2022-10-05T18:46:58.421Z,13.45
2022-10-05T18:49:42.695Z,13.45
2022-10-05T18:52:19.056Z,13.45
2022-10-05T18:54:57.269Z,13.42
2022-10-05T18:57:50.322Z,13.43
2022-10-05T19:00:22.886Z,13.43
2022-10-05T19:03:00.468Z,13.42
2022-10-05T19:05:47.974Z,13.42
2022-10-05T19:18:28.357Z,13.44
2022-10-05T19:21:10.642Z,13.44
2022-10-05T19:23:56.002Z,13.45
2022-10-05T19:26:49.397Z,13.46
2022-10-05T19:29:35.779Z,13.46
2022-10-05T19:32:18.121Z,13.43
2022-10-05T19:35:02.688Z,13.44
2022-10-05T19:37:40.226Z,13.42
2022-10-05T19:40:33.929Z,13.41
2022-10-05T19:43:23.827Z,13.41
2022-10-05T19:46:11.094Z,13.38
2022-10-05T19:48:44.033Z,13.38
2022-10-05T19:51:17.484Z,13.37
2022-10-05T19:53:49.486Z,13.34
2022-10-05T19:56:20.593Z,13.31
2022-10-05T19:58:51.353Z,13.27
2022-10-05T20:01:30.084Z,13.24
2022-10-05T20:04:10.058Z,13.21
2022-10-05T20:06:41.788Z,13.19
2022-10-05T20:09:21.307Z,13.16
2022-10-05T20:12:03.649Z,13.12
2022-10-05T20:14:59.163Z,13.08
2022-10-05T20:17:49.435Z,13.05
2022-10-05T20:20:38.756Z,13.02
2022-10-05T20:23:25.918Z,12.97
2022-10-05T20:26:14.422Z,12.93
2022-10-05T20:28:43.931Z,12.88
2022-10-05T20:31:13.945Z,12.83
2022-10-05T20:33:42.595Z,12.80
2022-10-05T20:36:10.975Z,12.76
2022-10-05T20:38:41.298Z,12.72
2022-10-05T20:41:09.802Z,12.67
2022-10-05T20:43:39.554Z,12.64
2022-10-05T20:46:08.026Z,12.60
2022-10-05T20:48:46.075Z,12.57
2022-10-05T20:51:17.402Z,12.53
2022-10-05T20:53:48.664Z,12.50
2022-10-05T20:56:19.304Z,12.47
2022-10-05T20:58:47.818Z,12.44
2022-10-05T21:01:17.803Z,12.40
2022-10-05T21:03:46.980Z,12.38
2022-10-05T21:06:17.441Z,12.35
2022-10-05T21:08:46.210Z,12.31
2022-10-05T21:11:14.886Z,12.29
2022-10-05T21:13:44.668Z,12.26
2022-10-05T21:16:16.148Z,12.23
2022-10-05T21:18:46.710Z,12.21
2022-10-05T21:21:16.701Z,12.19
2022-10-05T21:23:45.137Z,12.19
2022-10-05T21:26:15.061Z,12.18
2022-10-05T21:28:43.661Z,12.16
2022-10-05T21:31:12.280Z,12.14
2022-10-05T21:33:40.697Z,12.12
2022-10-05T21:36:09.493Z,12.12
2022-10-05T21:38:38.540Z,12.10
2022-10-05T21:41:07.551Z,12.09
2022-10-05T21:43:39.092Z,12.06
2022-10-05T21:46:08.382Z,12.04
2022-10-05T21:48:39.073Z,12.01
2022-10-05T21:51:10.061Z,11.98
2022-10-05T21:53:42.329Z,11.93
2022-10-05T21:56:16.359Z,11.88
2022-10-05T21:58:46.784Z,11.84
2022-10-05T22:01:20.158Z,11.79
2022-10-05T22:03:51.225Z,11.75
2022-10-05T22:06:26.267Z,11.71
2022-10-05T22:08:54.983Z,11.67
2022-10-05T22:11:25.408Z,11.63
2022-10-05T22:14:01.809Z,11.57
2022-10-05T22:16:32.797Z,11.54
2022-10-05T22:19:10.706Z,11.49
2022-10-05T22:21:41.090Z,11.44
2022-10-05T22:24:10.929Z,11.41
2022-10-05T22:26:40.045Z,11.40
2022-10-05T22:29:09.391Z,11.39
2022-10-05T22:31:38.726Z,11.37
2022-10-05T22:34:07.215Z,11.36
2022-10-05T22:36:36.889Z,11.34
2022-10-05T22:39:05.277Z,11.32
2022-10-05T22:41:34.006Z,11.30
2022-10-05T22:44:03.758Z,11.27
2022-10-05T22:46:32.184Z,11.25
2022-10-05T22:49:06.100Z,11.23
2022-10-05T22:51:34.671Z,11.23
2022-10-05T22:54:04.358Z,11.22
2022-10-05T22:56:32.762Z,11.22
2022-10-05T22:59:02.844Z,11.21
2022-10-05T23:01:31.336Z,11.20
2022-10-05T23:04:00.264Z,11.19
2022-10-05T23:06:30.181Z,11.18
2022-10-05T23:08:58.638Z,11.18
2022-10-05T23:11:28.223Z,11.17
2022-10-05T23:13:58.182Z,11.17
2022-10-05T23:16:32.839Z,11.15
2022-10-05T23:19:02.989Z,11.15
2022-10-05T23:21:31.529Z,11.13
2022-10-05T23:23:59.966Z,11.12
2022-10-05T23:26:28.467Z,11.09
2022-10-05T23:28:57.331Z,11.07
2022-10-05T23:31:29.340Z,11.05
2022-10-05T23:33:57.985Z,11.01
2022-10-05T23:36:31.827Z,10.99
2022-10-05T23:39:00.337Z,10.96
2022-10-05T23:41:29.006Z,10.93
2022-10-05T23:43:57.483Z,10.91
2022-10-05T23:46:26.016Z,10.89
2022-10-05T23:48:54.449Z,10.87
2022-10-05T23:51:23.043Z,10.83
2022-10-05T23:53:51.473Z,10.80
2022-10-05T23:56:19.944Z,10.78
2022-10-05T23:58:48.662Z,10.75
